FAHS/HDS METAR and TAF weather

Enter ICAO airport designator
Station Type Date Time Source
FAHS METAR 2020/01/21 21:00 UTC NOAA

FAHS 212100Z AUTO 16007KT //// // ////// 22/17 Q1018


Station Type Date Time Source
FAHS Decoded METAR 2020/01/21 21:00 UTC NOAA

Hoedspruit, South Africa (FAHS) 24-22S 031-02E 500M
Jan 21, 2020 - 04:00 PM EST / 2020.01.21 2100 UTC
Wind: from the SSE (160 degrees) at 8 MPH (7 KT):0
Temperature: 71 F (22 C)
Dew Point: 62 F (17 C)
Relative Humidity: 73%
Pressure (altimeter): 30.06 in. Hg (1018 hPa)
ob: FAHS 212100Z AUTO 16007KT //// // ////// 22/17 Q1018
cycle: 21

Station Type Date Time Source
FAHS TAF 2017/05/23 04:01 UTC NOAA

TAF FAHS 230300Z 2304/2315 VRB02KT CAVOK TX29/2312ZTN12/2304Z

Example: see airport list